Orbital elements of FENGYUN 1C DEB
| Launched | 9 May 1999 |
| Flight ended | – |
| Launch site | Taiyuan Space Center, PRC |
| Owner | People's Republic of China |
| NORAD ID | 45527 |
| Date fetched |
Epoch osculation |
Inc. [°] |
Ecc. | RA asc node [hr] |
Arg Peri. [°] |
Mean anom [°] |
Mean motion [rev/day] |
Abs. mag |
| Date fetched |
Epoch osculation |
Inc. [°] |
Ecc. | RA asc node [hr] |
Arg Peri. [°] |
Mean anom [°] |
Mean motion [rev/day] |
Abs. mag |
| 2026 May 05 17:57 | 2026 May 04 04:13:46 | 98.7239 | 0.00555 | 13.0052 | 171.7461 | 188.4645 | 14.25507 | – |
| 2026 May 04 17:57 | 2026 Apr 30 10:56:46 | 98.7245 | 0.00553 | 12.7585 | 182.3249 | 188.4645 | 14.25507 | – |
| 2026 May 03 17:57 | 2026 Apr 30 10:56:46 | 98.7245 | 0.00553 | 12.7585 | 182.3249 | 188.4645 | 14.25507 | – |
| 2026 May 02 17:57 | 2026 Apr 30 10:56:46 | 98.7245 | 0.00553 | 12.7585 | 182.3249 | 188.4645 | 14.25507 | – |
| 2026 May 01 17:56 | 2026 Apr 30 10:56:46 | 98.7245 | 0.00553 | 12.7585 | 182.3249 | 188.4645 | 14.25507 | – |
| 2026 Apr 30 17:56 | 2026 Apr 30 10:56:46 | 98.7245 | 0.00553 | 12.7585 | 182.3249 | 188.4645 | 14.25507 | – |
| 2026 Apr 29 17:57 | 2026 Apr 23 03:44:40 | 98.7239 | 0.00547 | 12.2743 | 203.0604 | 188.4645 | 14.25507 | – |
| 2026 Apr 28 17:56 | 2026 Apr 23 03:44:40 | 98.7239 | 0.00547 | 12.2743 | 203.0604 | 188.4645 | 14.25507 | – |
| 2026 Apr 27 17:58 | 2026 Apr 23 03:44:40 | 98.7239 | 0.00547 | 12.2743 | 203.0604 | 188.4645 | 14.25507 | – |
| 2026 Apr 26 17:58 | 2026 Apr 23 03:44:40 | 98.7239 | 0.00547 | 12.2743 | 203.0604 | 188.4645 | 14.25507 | – |
| 2026 Apr 25 17:58 | 2026 Apr 23 03:44:40 | 98.7239 | 0.00547 | 12.2743 | 203.0604 | 188.4645 | 14.25507 | – |
| 2026 Apr 24 17:59 | 2026 Apr 23 03:44:40 | 98.7239 | 0.00547 | 12.2743 | 203.0604 | 188.4645 | 14.25507 | – |
| 2026 Apr 23 17:57 | 2026 Apr 19 10:27:26 | 98.7242 | 0.00542 | 12.0275 | 213.7256 | 188.4645 | 14.25507 | – |
| 2026 Apr 22 17:57 | 2026 Apr 19 10:27:26 | 98.7242 | 0.00542 | 12.0275 | 213.7256 | 188.4645 | 14.25507 | – |
| 2026 Apr 21 17:57 | 2026 Apr 19 10:27:26 | 98.7242 | 0.00542 | 12.0275 | 213.7256 | 188.4645 | 14.25507 | – |
| 2026 Apr 20 17:57 | 2026 Apr 19 10:27:26 | 98.7242 | 0.00542 | 12.0275 | 213.7256 | 188.4645 | 14.25507 | – |
| 2026 Apr 19 17:58 | 2026 Apr 19 10:27:26 | 98.7242 | 0.00542 | 12.0275 | 213.7256 | 188.4645 | 14.25507 | – |
| 2026 Apr 18 17:56 | 2026 Apr 13 02:50:06 | 98.7240 | 0.00536 | 11.6084 | 232.0829 | 188.4645 | 14.25507 | – |
| 2026 Apr 16 17:57 | 2026 Apr 13 02:50:06 | 98.7240 | 0.00536 | 11.6084 | 232.0829 | 188.4645 | 14.25507 | – |
| 2026 Apr 14 17:57 | 2026 Apr 13 02:50:06 | 98.7240 | 0.00536 | 11.6084 | 232.0829 | 188.4645 | 14.25507 | – |
| 2026 Apr 13 17:57 | 2026 Apr 13 02:50:06 | 98.7240 | 0.00536 | 11.6084 | 232.0829 | 188.4645 | 14.25507 | – |
| 2026 Apr 12 17:57 | 2026 Apr 08 03:13:13 | 98.7238 | 0.00530 | 11.2779 | 246.6104 | 188.4645 | 14.25507 | – |
| 2026 Apr 11 17:57 | 2026 Apr 08 03:13:13 | 98.7238 | 0.00530 | 11.2779 | 246.6104 | 188.4645 | 14.25507 | – |
| 2026 Apr 10 17:58 | 2026 Apr 08 03:13:13 | 98.7238 | 0.00530 | 11.2779 | 246.6104 | 188.4645 | 14.25507 | – |
| 2026 Apr 09 18:01 | 2026 Apr 08 03:13:13 | 98.7238 | 0.00530 | 11.2779 | 246.6104 | 188.4645 | 14.25507 | – |
| 2026 Apr 08 17:57 | 2026 Apr 08 03:13:13 | 98.7238 | 0.00530 | 11.2779 | 246.6104 | 188.4645 | 14.25507 | – |